Time;durP1;ratioP1;P1;durP2;ratioP2;P2;SDS_P1;SDS_P2;PMS_P1;PMS_P2;Temp;Humidity;BMP_temperature;BMP_pressure;BME280_temperature;BME280_humidity;BME280_pressure;Samples;Min_cycle;Max_cycle;Signal;HPM_P1;HPM_P2
2023/01/05 00:01:12;;;;;;;;;0.67;0.33;;;;;14.10;100.00;101966.81;5078503;28;45231;-81
2023/01/05 00:03:37;;;;;;;;;0.00;0.00;;;;;14.08;100.00;101967.00;5078830;28;45400;-82
2023/01/05 00:06:14;;;;;;;;;0.00;0.00;;;;;13.99;100.00;101947.44;5078659;27;45348;-81
2023/01/05 00:08:41;;;;;;;;;0.67;0.00;;;;;14.06;100.00;101958.28;5060214;28;47022;-79
2023/01/05 00:22:31;;;;;;;;;0.00;0.00;;;;;14.09;100.00;101974.00;5079042;28;45752;-81
2023/01/05 00:25:12;;;;;;;;;0.00;0.00;;;;;14.10;100.00;101972.16;5082262;28;45603;-81
2023/01/05 00:27:39;;;;;;;;;0.00;0.00;;;;;14.07;100.00;101970.63;5082072;28;45480;-82
2023/01/05 00:30:05;;;;;;;;;0.00;0.00;;;;;14.10;100.00;101972.97;5081777;28;45210;-82
2023/01/05 00:32:30;;;;;;;;;0.33;0.00;;;;;14.11;100.00;101963.97;5069706;28;45430;-81
2023/01/05 00:34:57;;;;;;;;;0.00;0.00;;;;;14.18;100.00;101965.94;5061422;28;45276;-81
2023/01/05 00:37:26;;;;;;;;;0.00;0.00;;;;;14.09;100.00;101954.44;5061685;28;45366;-82
2023/01/05 00:39:52;;;;;;;;;0.67;0.67;;;;;14.05;100.00;101947.75;5061363;28;45330;-81
2023/01/05 00:42:17;;;;;;;;;0.00;0.00;;;;;14.16;100.00;101960.81;5061570;28;46266;-81
2023/01/05 00:44:43;;;;;;;;;0.00;0.00;;;;;14.10;100.00;101951.59;5042677;28;45261;-82
2023/01/05 00:47:08;;;;;;;;;0.00;0.00;;;;;14.11;100.00;101947.94;5061753;28;45292;-82
2023/01/05 00:49:34;;;;;;;;;1.00;0.00;;;;;14.16;100.00;101974.19;5061452;28;45470;-81
2023/01/05 00:51:59;;;;;;;;;0.00;0.00;;;;;14.05;100.00;101945.09;5061270;28;45257;-81
2023/01/05 00:54:25;;;;;;;;;0.00;0.00;;;;;14.13;100.00;101967.31;5061241;28;45299;-82
2023/01/05 00:56:50;;;;;;;;;0.33;0.33;;;;;14.10;100.00;101962.28;5061468;28;45347;-82
2023/01/05 00:59:17;;;;;;;;;0.00;0.00;;;;;14.01;100.00;101950.78;5061041;28;45517;-82
2023/01/05 01:01:47;;;;;;;;;0.00;0.00;;;;;14.08;100.00;101977.69;5061401;28;45375;-82
2023/01/05 01:04:12;;;;;;;;;0.00;0.00;;;;;14.07;100.00;101961.81;5042710;28;46196;-81
2023/01/05 01:06:38;;;;;;;;;0.00;0.00;;;;;14.07;100.00;101975.16;5061195;28;45367;-81
2023/01/05 01:09:03;;;;;;;;;0.00;0.00;;;;;14.00;100.00;101969.66;5060811;28;45541;-82
2023/01/05 01:11:28;;;;;;;;;0.00;0.00;;;;;14.04;100.00;101979.03;5060921;28;45483;-82
2023/01/05 01:13:54;;;;;;;;;0.00;0.00;;;;;13.94;100.00;101971.16;5060875;28;45213;-82
2023/01/05 01:16:19;;;;;;;;;0.00;0.00;;;;;13.89;100.00;101960.97;5061197;28;45355;-82
2023/01/05 01:18:45;;;;;;;;;0.00;0.00;;;;;13.94;100.00;101965.81;5060768;28;45273;-82
2023/01/05 01:21:10;;;;;;;;;0.00;0.00;;;;;13.84;100.00;101968.66;5060893;28;45772;-82
2023/01/05 01:23:36;;;;;;;;;1.00;0.00;;;;;13.93;100.00;101976.66;5060606;28;45728;-81
2023/01/05 01:26:10;;;;;;;;;0.00;0.00;;;;;13.89;100.00;101965.50;5061087;28;45400;-80
2023/01/05 01:28:35;;;;;;;;;0.00;0.00;;;;;13.81;100.00;101966.31;5042152;28;46237;-82
2023/01/05 01:31:01;;;;;;;;;0.00;0.00;;;;;13.84;100.00;101968.66;5060791;28;45259;-82
2023/01/05 01:33:28;;;;;;;;;2.00;1.00;;;;;13.88;100.00;101972.66;5079256;28;45414;-81
2023/01/05 01:35:54;;;;;;;;;1.00;0.00;;;;;13.86;100.00;101974.66;5062763;28;45418;-82
2023/01/05 01:38:19;;;;;;;;;0.00;0.00;;;;;13.80;100.00;101961.13;5080419;28;45386;-81
2023/01/05 01:40:47;;;;;;;;;0.00;0.00;;;;;13.88;100.00;101974.47;5080938;28;45366;-81
2023/01/05 01:43:18;;;;;;;;;0.00;0.00;;;;;13.84;100.00;101971.31;5080500;28;45323;-81
2023/01/05 01:45:44;;;;;;;;;0.00;0.00;;;;;13.74;100.00;101958.09;5081060;28;45382;-82
2023/01/05 01:48:17;;;;;;;;;0.00;0.00;;;;;13.68;100.00;101956.09;5062189;28;47444;-81
2023/01/05 01:50:51;;;;;;;;;1.00;0.00;;;;;13.83;100.00;101976.84;5080637;28;45371;-81
2023/01/05 01:53:22;;;;;;;;;0.00;0.00;;;;;13.80;100.00;101982.50;5080357;28;45408;-81
2023/01/05 01:55:51;;;;;;;;;0.67;0.00;;;;;13.69;100.00;101964.94;5080772;28;45646;-81
2023/01/05 01:58:20;;;;;;;;;4.00;0.00;;;;;13.70;100.00;101975.47;5061908;28;46527;-81
2023/01/05 02:00:46;;;;;;;;;0.33;0.33;;;;;13.77;100.00;101978.34;5061842;28;47384;-81
2023/01/05 02:03:13;;;;;;;;;0.00;0.00;;;;;13.67;100.00;101978.47;5080568;28;45232;-81
2023/01/05 02:05:38;;;;;;;;;1.00;0.67;;;;;13.73;100.00;101976.97;5080488;28;45422;-81
2023/01/05 02:08:11;;;;;;;;;3.00;0.67;;;;;13.69;100.00;101967.63;5093203;27;45540;-81
2023/01/05 02:10:55;;;;;;;;;0.00;0.00;;;;;13.78;100.00;101981.81;5062060;28;48262;-81
2023/01/05 02:13:53;;;;;;;;;0.00;0.00;;;;;13.79;100.00;101989.69;5080289;28;45406;-81
2023/01/05 02:16:33;;;;;;;;;1.00;0.00;;;;;13.68;100.00;101977.47;5062151;28;45470;-81
2023/01/05 02:19:17;;;;;;;;;2.33;0.00;;;;;13.80;100.00;101993.19;5080245;28;45385;-81
2023/01/05 02:22:20;;;;;;;;;0.00;0.00;;;;;13.80;100.00;101990.53;5080200;28;45434;-80
2023/01/05 02:25:03;;;;;;;;;1.00;0.00;;;;;13.79;100.00;101989.69;5070140;28;45228;-81
2023/01/05 02:27:39;;;;;;;;;0.33;0.00;;;;;13.80;100.00;101993.19;5061893;28;45280;-80
2023/01/05 02:30:33;;;;;;;;;0.00;0.00;;;;;13.82;100.00;102001.88;5079966;28;45347;-81
2023/01/05 02:33:13;;;;;;;;;0.25;0.25;;;;;13.74;100.00;101990.16;5061755;28;48092;-80
2023/01/05 02:35:53;;;;;;;;;1.00;1.00;;;;;13.79;100.00;102007.53;5061394;28;45482;-81
2023/01/05 02:38:56;;;;;;;;;0.00;0.00;;;;;13.74;100.00;102002.72;5061190;28;45282;-81
2023/01/05 02:41:31;;;;;;;;;0.67;0.00;;;;;13.68;100.00;101996.16;5079719;28;45368;-81
2023/01/05 02:43:59;;;;;;;;;0.00;0.00;;;;;13.63;100.00;101991.34;5067528;28;45688;-81
2023/01/05 02:46:24;;;;;;;;;1.00;0.00;;;;;13.62;100.00;102000.34;5079177;28;45726;-81
2023/01/05 02:48:55;;;;;;;;;0.00;0.00;;;;;13.62;100.00;102007.53;5061565;28;45687;-81
2023/01/05 02:51:30;;;;;;;;;0.67;0.67;;;;;13.49;100.00;101987.47;5079763;28;45264;-80
2023/01/05 02:54:05;;;;;;;;;1.00;1.00;;;;;13.50;100.00;101999.81;5079482;28;45381;-81
2023/01/05 02:56:37;;;;;;;;;1.00;1.00;;;;;13.52;100.00;101998.81;5061022;28;45324;-81
2023/01/05 02:59:10;;;;;;;;;2.00;0.00;;;;;13.43;100.00;101989.91;5079827;28;45398;-81
2023/01/05 03:01:45;;;;;;;;;1.00;0.00;;;;;13.43;100.00;101998.75;5079099;28;45479;-81
2023/01/05 03:04:21;;;;;;;;;0.67;0.00;;;;;13.52;100.00;102012.19;5079347;28;46335;-81
2023/01/05 03:06:55;;;;;;;;;1.33;0.33;;;;;13.54;100.00;102002.16;5060886;28;45652;-81
2023/01/05 03:09:25;;;;;;;;;1.33;1.00;;;;;13.50;100.00;101993.66;5079642;28;45287;-81
2023/01/05 03:15:05;;;;;;;;;1.67;0.33;;;;;13.50;100.00;101989.13;5079234;28;45451;-81
2023/01/05 03:17:41;;;;;;;;;1.00;0.33;;;;;13.44;100.00;101986.25;5060877;28;45341;-80
2023/01/05 03:20:07;;;;;;;;;0.33;0.00;;;;;13.45;100.00;101987.91;5079667;28;45311;-81
2023/01/05 03:36:55;;;;;;;;;0.33;0.00;;;;;13.51;100.00;102000.66;5078615;28;45661;-81
2023/01/05 03:39:25;;;;;;;;;2.00;1.00;;;;;13.55;100.00;102006.47;5060951;28;45346;-80
2023/01/05 03:41:51;;;;;;;;;3.00;1.00;;;;;13.53;100.00;102000.50;5079019;28;45451;-81
2023/01/05 03:44:17;;;;;;;;;0.67;0.00;;;;;13.55;100.00;102009.16;5078804;28;45374;-81
2023/01/05 03:46:42;;;;;;;;;0.67;0.33;;;;;13.62;100.00;102024.38;5078813;28;46039;-80
2023/01/05 03:49:08;;;;;;;;;2.33;2.33;;;;;13.63;100.00;102017.22;5078979;28;45382;-80
2023/01/05 03:51:33;;;;;;;;;0.00;0.00;;;;;13.60;100.00;102009.50;5078723;28;45413;-80
2023/01/05 03:53:58;;;;;;;;;0.33;0.00;;;;;13.63;100.00;102004.69;5078759;28;45491;-81
2023/01/05 03:56:24;;;;;;;;;1.00;1.00;;;;;13.59;100.00;101997.16;5078419;28;45385;-81
2023/01/05 03:58:49;;;;;;;;;0.00;0.00;;;;;13.67;100.00;102012.34;5063790;28;45394;-81
2023/01/05 04:01:14;;;;;;;;;1.00;1.00;;;;;13.62;100.00;101986.97;5082344;28;45403;-80
2023/01/05 04:03:40;;;;;;;;;1.00;0.00;;;;;13.71;100.00;102019.06;5082376;28;45340;-80
2023/01/05 04:06:05;;;;;;;;;1.00;1.00;;;;;13.71;100.00;102019.88;5085412;27;45433;-81
2023/01/05 04:08:31;;;;;;;;;1.33;1.33;;;;;13.61;100.00;102013.84;5092025;27;45373;-80
2023/01/05 04:10:56;;;;;;;;;2.00;0.00;;;;;13.60;100.00;102005.03;5082066;28;45786;-80
2023/01/05 04:13:22;;;;;;;;;0.00;0.00;;;;;13.71;100.00;102019.88;5082248;28;45513;-80
2023/01/05 04:15:47;;;;;;;;;1.33;1.00;;;;;13.68;100.00;102006.84;5081880;28;45183;-80
2023/01/05 04:18:13;;;;;;;;;0.00;0.00;;;;;13.60;100.00;101994.34;5082082;28;45246;-80
2023/01/05 04:20:38;;;;;;;;;1.33;0.00;;;;;13.70;100.00;102018.22;5082032;28;45325;-80
2023/01/05 04:23:03;;;;;;;;;0.00;0.00;;;;;13.67;100.00;102007.00;5063749;28;46255;-80
2023/01/05 04:25:29;;;;;;;;;0.00;0.00;;;;;13.66;100.00;102014.22;5081750;28;45297;-80
2023/01/05 04:27:54;;;;;;;;;5.00;2.00;;;;;13.65;100.00;102007.22;5063677;28;45413;-79
2023/01/05 04:30:20;;;;;;;;;1.33;1.33;;;;;13.68;100.00;102009.53;5063711;28;45236;-79
2023/01/05 04:32:46;;;;;;;;;4.33;1.00;;;;;13.75;100.00;102009.72;5081709;28;45430;-80
2023/01/05 04:35:11;;;;;;;;;0.67;0.00;;;;;13.67;100.00;101989.16;5081528;28;46265;-80
2023/01/05 04:37:36;;;;;;;;;0.00;0.00;;;;;13.65;100.00;101985.84;5081596;28;45319;-80
2023/01/05 04:40:02;;;;;;;;;1.00;1.00;;;;;13.72;100.00;102002.03;5081747;28;45402;-80
2023/01/05 04:42:27;;;;;;;;;0.00;0.00;;;;;13.82;100.00;102012.56;5081583;28;46739;-80
2023/01/05 04:44:53;;;;;;;;;1.00;1.00;;;;;13.73;100.00;102001.00;5081298;28;45361;-79
2023/01/05 04:47:18;;;;;;;;;2.00;1.00;;;;;13.78;100.00;102009.38;5081879;28;45417;-80
2023/01/05 04:49:43;;;;;;;;;0.67;0.00;;;;;13.78;100.00;102000.53;5063211;28;45284;-80
2023/01/05 04:52:09;;;;;;;;;0.00;0.00;;;;;13.86;100.00;102019.25;5081566;28;45393;-80
2023/01/05 04:54:34;;;;;;;;;0.67;0.67;;;;;13.74;100.00;102000.84;5063083;28;48068;-80
2023/01/05 04:56:59;;;;;;;;;1.00;0.00;;;;;13.79;100.00;102007.53;5081483;28;45365;-80
2023/01/05 04:59:25;;;;;;;;;1.00;0.00;;;;;13.85;100.00;102014.91;5081424;28;45398;-80
2023/01/05 05:01:50;;;;;;;;;0.00;0.00;;;;;13.79;100.00;102010.19;5063312;28;47277;-79
2023/01/05 05:04:15;;;;;;;;;0.67;0.00;;;;;13.80;100.00;102010.03;5081447;28;46276;-80
2023/01/05 05:06:41;;;;;;;;;0.00;0.00;;;;;13.78;100.00;102003.19;5089632;27;45289;-80
2023/01/05 05:09:06;;;;;;;;;2.00;1.00;;;;;13.80;100.00;102006.56;5085917;27;45412;-80
2023/01/05 05:11:31;;;;;;;;;0.00;0.00;;;;;13.60;100.00;102006.84;5081246;28;45458;-80
2023/01/05 05:13:57;;;;;;;;;1.00;1.00;;;;;13.56;100.00;102002.84;5080952;28;46116;-80
2023/01/05 05:16:22;;;;;;;;;0.00;0.00;;;;;13.58;100.00;102003.50;5063037;28;45306;-80
2023/01/05 05:18:47;;;;;;;;;2.33;1.33;;;;;13.57;100.00;102000.00;5081098;28;45333;-80
2023/01/05 05:21:13;;;;;;;;;2.00;0.00;;;;;13.58;100.00;102003.50;5062851;28;46227;-80
2023/01/05 05:23:38;;;;;;;;;0.00;0.00;;;;;13.53;100.00;101987.94;5080909;28;46120;-80
2023/01/05 05:26:03;;;;;;;;;1.00;0.00;;;;;13.50;100.00;101996.31;5063034;28;45317;-80
2023/01/05 05:28:29;;;;;;;;;3.67;0.33;;;;;13.61;100.00;102011.19;5080717;28;45479;-80
2023/01/05 05:30:55;;;;;;;;;0.00;0.00;;;;;13.59;100.00;102005.19;5081252;28;45475;-80
2023/01/05 05:33:22;;;;;;;;;1.33;1.33;;;;;13.61;100.00;102016.53;5062240;28;47513;-80
2023/01/05 05:35:47;;;;;;;;;1.00;0.00;;;;;13.54;100.00;102005.66;5081080;28;45486;-80
2023/01/05 05:38:12;;;;;;;;;1.00;0.00;;;;;13.61;100.00;102014.69;5080725;28;45382;-80
2023/01/05 05:40:38;;;;;;;;;1.67;0.00;;;;;13.57;100.00;102010.69;5062607;28;46015;-80
2023/01/05 05:43:03;;;;;;;;;0.00;0.00;;;;;13.56;100.00;101998.31;5080480;28;45448;-80
2023/01/05 05:45:28;;;;;;;;;0.00;0.00;;;;;13.50;100.00;101988.31;5080935;28;45476;-80
2023/01/05 05:47:54;;;;;;;;;0.00;0.00;;;;;13.59;100.00;102003.31;5080887;28;45332;-80
2023/01/05 05:50:19;;;;;;;;;1.00;0.00;;;;;13.56;100.00;101997.50;5062470;28;47601;-80
2023/01/05 05:52:45;;;;;;;;;0.00;0.00;;;;;13.62;100.00;102015.53;5062073;28;47200;-80
2023/01/05 05:55:10;;;;;;;;;1.00;1.00;;;;;13.59;100.00;102007.84;5080617;28;45367;-80
2023/01/05 05:57:35;;;;;;;;;1.00;0.00;;;;;13.66;100.00;102022.22;5062085;28;45487;-80
2023/01/05 06:00:01;;;;;;;;;2.67;0.00;;;;;13.57;100.00;102013.34;5080624;28;45330;-80
2023/01/05 06:02:26;;;;;;;;;0.00;0.00;;;;;13.60;100.00;102013.03;5062138;28;48004;-80
2023/01/05 06:04:52;;;;;;;;;1.67;1.00;;;;;13.54;100.00;102000.31;5080553;28;45318;-80
2023/01/05 06:07:17;;;;;;;;;0.00;0.00;;;;;13.67;100.00;102031.91;5061811;28;45462;-80
2023/01/05 06:09:42;;;;;;;;;1.00;0.00;;;;;13.62;100.00;102026.22;5080285;28;45450;-79
2023/01/05 06:12:07;;;;;;;;;0.00;0.00;;;;;13.69;100.00;102039.75;5062074;28;46986;-80
2023/01/05 06:14:33;;;;;;;;;0.00;0.00;;;;;13.58;100.00;102020.38;5079988;28;45265;-80
2023/01/05 06:16:59;;;;;;;;;0.00;0.00;;;;;13.62;100.00;102034.25;5080313;28;45353;-80
2023/01/05 06:19:24;;;;;;;;;0.00;0.00;;;;;13.62;100.00;102043.06;5078595;28;45560;-81
2023/01/05 06:21:50;;;;;;;;;1.00;0.00;;;;;13.63;100.00;102049.25;5074714;28;46926;-80
2023/01/05 06:24:15;;;;;;;;;3.00;2.00;;;;;13.57;100.00;102041.88;5078228;28;45330;-80
2023/01/05 06:26:40;;;;;;;;;0.00;0.00;;;;;13.60;100.00;102053.09;5079874;28;45621;-80
2023/01/05 06:29:06;;;;;;;;;2.00;0.00;;;;;13.61;100.00;102051.25;5079707;28;45359;-80
2023/01/05 06:31:31;;;;;;;;;0.00;0.00;;;;;13.62;100.00;102050.28;5060151;28;47336;-80
2023/01/05 06:33:56;;;;;;;;;0.00;0.00;;;;;13.57;100.00;102055.25;5061785;28;45799;-80
2023/01/05 06:36:22;;;;;;;;;0.00;0.00;;;;;13.52;100.00;102047.72;5080133;28;45300;-80
2023/01/05 06:38:47;;;;;;;;;1.67;0.00;;;;;13.61;100.00;102061.94;5061159;28;46682;-80
2023/01/05 06:41:12;;;;;;;;;0.33;0.33;;;;;13.57;100.00;102058.78;5079884;28;45409;-80
2023/01/05 06:43:38;;;;;;;;;0.00;0.00;;;;;13.65;100.00;102068.66;5079411;28;45331;-80
2023/01/05 06:46:03;;;;;;;;;1.67;0.67;;;;;13.65;100.00;102063.31;5079968;28;45500;-80
2023/01/05 06:48:28;;;;;;;;;2.00;0.33;;;;;13.57;100.00;102055.25;5079582;28;45495;-80
2023/01/05 06:50:54;;;;;;;;;1.00;1.00;;;;;13.65;100.00;102068.66;5079743;28;45482;-80
2023/01/05 06:53:19;;;;;;;;;5.67;5.67;;;;;13.65;100.00;102065.97;5079230;28;45433;-80
2023/01/05 06:55:44;;;;;;;;;16.00;14.33;;;;;13.62;100.00;102060.97;5079913;28;45411;-80
2023/01/05 06:58:10;;;;;;;;;7.00;6.67;;;;;13.59;100.00;102062.09;5079124;28;45485;-80
2023/01/05 07:00:35;;;;;;;;;1.33;1.33;;;;;13.61;100.00;102056.59;5061272;28;47178;-80
2023/01/05 07:03:01;;;;;;;;;3.33;3.33;;;;;13.59;100.00;102054.06;5079499;28;45272;-80
2023/01/05 07:05:27;;;;;;;;;3.67;2.33;;;;;13.63;100.00;102067.97;5061353;28;45638;-80
2023/01/05 07:07:53;;;;;;;;;0.00;0.00;;;;;13.56;100.00;102056.25;5061093;28;46179;-81
2023/01/05 07:10:18;;;;;;;;;1.00;1.00;;;;;13.56;100.00;102065.09;5079416;28;45391;-80
2023/01/05 07:12:43;;;;;;;;;2.67;2.67;;;;;13.66;100.00;102075.66;5079039;28;45163;-81
2023/01/05 07:15:09;;;;;;;;;4.00;4.00;;;;;13.62;100.00;102064.44;5079739;28;45493;-81
2023/01/05 07:17:35;;;;;;;;;1.00;1.00;;;;;13.60;100.00;102065.59;5068554;27;45446;-81
2023/01/05 07:20:01;;;;;;;;;0.00;0.00;;;;;13.68;100.00;102070.97;5065410;28;48233;-81
2023/01/05 07:22:29;;;;;;;;;0.00;0.00;;;;;13.68;100.00;102073.63;5076555;28;45690;-80
2023/01/05 07:24:55;;;;;;;;;5.00;5.00;;;;;13.68;100.00;102076.31;5072298;28;45476;-79
2023/01/05 07:27:21;;;;;;;;;15.33;15.33;;;;;13.69;100.00;102078.00;5060833;28;47306;-79
2023/01/05 07:29:46;;;;;;;;;10.00;10.00;;;;;13.64;100.00;102072.28;5079036;28;45348;-80
2023/01/05 07:32:11;;;;;;;;;3.33;2.33;;;;;13.66;100.00;102077.47;5079470;28;45546;-80
2023/01/05 07:34:37;;;;;;;;;4.33;3.67;;;;;13.69;100.00;102077.16;5064628;28;45423;-79
2023/01/05 07:37:02;;;;;;;;;4.00;3.00;;;;;13.62;100.00;102069.78;5082297;28;45549;-80
2023/01/05 07:39:27;;;;;;;;;8.00;8.00;;;;;13.65;100.00;102071.31;5082722;28;45523;-79
2023/01/05 07:41:53;;;;;;;;;6.00;5.00;;;;;13.61;100.00;102065.44;5082373;28;45249;-79
2023/01/05 07:44:18;;;;;;;;;7.00;7.00;;;;;13.65;100.00;102079.34;5082706;28;45231;-80
2023/01/05 07:46:43;;;;;;;;;5.00;4.67;;;;;13.71;100.00;102078.66;5064130;28;46688;-79
2023/01/05 07:49:09;;;;;;;;;3.00;3.00;;;;;13.71;100.00;102084.00;5082623;28;46383;-78
2023/01/05 07:51:34;;;;;;;;;7.33;7.33;;;;;13.67;100.00;102074.66;5082273;28;45364;-80
2023/01/05 07:53:59;;;;;;;;;3.67;3.33;;;;;13.71;100.00;102084.00;5082636;28;45212;-79
2023/01/05 07:56:25;;;;;;;;;1.00;1.00;;;;;13.68;100.00;102070.97;5082195;28;45319;-79
2023/01/05 07:58:50;;;;;;;;;2.00;1.00;;;;;13.70;100.00;102084.16;5075215;28;46210;-79
2023/01/05 08:01:18;;;;;;;;;2.00;1.33;;;;;13.75;100.00;102093.38;5061448;28;45272;-79
2023/01/05 08:03:44;;;;;;;;;1.67;1.33;;;;;13.73;100.00;102084.69;5082622;28;45333;-80
2023/01/05 08:06:14;;;;;;;;;2.00;2.00;;;;;13.74;100.00;102083.69;5085853;27;45359;-79
2023/01/05 08:08:40;;;;;;;;;1.00;1.00;;;;;13.77;100.00;102082.53;5090530;27;46370;-79
2023/01/05 08:11:07;;;;;;;;;4.00;4.00;;;;;13.81;100.00;102083.03;5081955;28;46083;-78
2023/01/05 08:16:18;;;;;;;;;1.00;1.00;;;;;13.84;100.00;102086.22;5068915;28;45502;-79
2023/01/05 08:18:43;;;;;;;;;6.33;5.00;;;;;13.84;100.00;102082.72;5081773;28;45382;-79
2023/01/05 08:21:09;;;;;;;;;1.00;1.00;;;;;13.82;100.00;102079.34;5082251;28;45354;-79
2023/01/05 08:23:35;;;;;;;;;9.00;7.33;;;;;13.98;100.00;102099.97;5081936;28;45931;-79
2023/01/05 08:26:11;;;;;;;;;5.33;5.33;;;;;13.94;100.00;102088.75;5063595;28;45527;-79
2023/01/05 08:28:37;;;;;;;;;3.00;3.00;;;;;14.01;100.00;102107.66;5081560;28;45463;-77
2023/01/05 08:31:18;;;;;;;;;4.00;4.00;;;;;14.01;100.00;102089.75;5063757;28;45248;-77
2023/01/05 08:33:44;;;;;;;;;6.00;4.00;;;;;13.96;100.00;102081.41;5063506;28;45373;-76
2023/01/05 08:36:12;;;;;;;;;6.00;6.00;;;;;13.96;100.00;102083.25;5063532;28;45386;-77
2023/01/05 08:38:46;;;;;;;;;5.00;5.00;;;;;13.94;100.00;102074.53;5069597;27;46000;-78
2023/01/05 08:41:38;;;;;;;;;5.00;3.33;;;;;14.07;100.00;102092.78;5078866;28;45288;-77
2023/01/05 08:44:06;;;;;;;;;3.00;3.00;;;;;14.12;100.00;102101.13;5065808;27;45335;-77
2023/01/05 08:46:34;;;;;;;;;2.00;2.00;;;;;14.10;100.00;102098.63;5069661;28;46330;-77
2023/01/05 08:49:03;;;;;;;;;4.00;3.00;;;;;14.14;100.00;102099.16;5081506;28;46171;-77
2023/01/05 08:51:29;;;;;;;;;3.00;3.00;;;;;14.11;100.00;102097.66;5081115;28;45372;-77
2023/01/05 08:53:55;;;;;;;;;3.00;3.00;;;;;14.08;100.00;102092.63;5081891;28;45342;-76
2023/01/05 08:56:21;;;;;;;;;3.00;3.00;;;;;14.17;100.00;102106.84;5081148;28;45369;-77
2023/01/05 08:58:46;;;;;;;;;4.00;2.00;;;;;14.30;100.00;102109.03;5081271;28;45524;-75
2023/01/05 09:01:15;;;;;;;;;4.00;3.00;;;;;14.38;100.00;102103.69;5081084;28;45247;-75
2023/01/05 09:03:40;;;;;;;;;1.00;1.00;;;;;14.39;100.00;102102.69;5081596;28;45272;-76
2023/01/05 09:06:08;;;;;;;;;3.00;3.00;;;;;14.42;100.00;102106.84;5062819;28;45909;-75
2023/01/05 09:08:34;;;;;;;;;3.67;3.67;;;;;14.33;100.00;102091.78;5074123;28;46254;-75
2023/01/05 09:11:05;;;;;;;;;1.00;1.00;;;;;14.43;100.00;102105.88;5080908;28;45312;-74
2023/01/05 09:13:31;;;;;;;;;3.00;2.00;;;;;14.41;100.00;102099.84;5081210;28;45340;-75
2023/01/05 09:15:56;;;;;;;;;3.00;3.00;;;;;14.30;100.00;102078.78;5077923;28;45400;-74
2023/01/05 09:18:21;;;;;;;;;4.33;3.67;;;;;14.42;100.00;102096.16;5080759;28;45425;-74
2023/01/05 09:20:54;;;;;;;;;4.67;3.00;;;;;14.44;100.00;102096.84;5080634;28;45341;-75
2023/01/05 09:23:20;;;;;;;;;3.00;2.67;;;;;14.51;100.00;102105.00;5080874;28;45272;-74
2023/01/05 09:25:45;;;;;;;;;3.33;3.00;;;;;14.58;100.00;102118.56;5062256;28;46038;-74
2023/01/05 09:28:10;;;;;;;;;4.00;4.00;;;;;14.50;100.00;102092.66;5080471;28;45266;-76
2023/01/05 09:30:36;;;;;;;;;1.33;1.33;;;;;14.63;100.00;102110.88;5078883;28;45374;-76
2023/01/05 09:33:01;;;;;;;;;3.33;3.00;;;;;14.53;100.00;102092.31;5081075;28;45544;-76
2023/01/05 09:35:26;;;;;;;;;3.33;3.00;;;;;14.62;100.00;102106.53;5080626;28;45299;-75
2023/01/05 09:37:51;;;;;;;;;3.00;3.00;;;;;14.60;100.00;102106.69;5080311;28;46380;-77
2023/01/05 09:40:17;;;;;;;;;2.67;2.67;;;;;14.63;100.00;102106.34;5080511;28;45201;-77
2023/01/05 09:42:45;;;;;;;;;3.00;3.00;;;;;14.67;100.00;102117.56;5077517;28;45402;-77
2023/01/05 09:45:25;;;;;;;;;8.00;7.00;;;;;14.66;100.00;102110.53;5078489;28;45542;-77
2023/01/05 09:47:53;;;;;;;;;4.33;4.33;;;;;14.73;100.00;102122.22;5080080;28;46042;-76
2023/01/05 09:50:21;;;;;;;;;5.33;5.00;;;;;14.75;100.00;102114.88;5080226;28;45709;-79
2023/01/05 09:52:50;;;;;;;;;4.67;4.67;;;;;14.86;100.00;102123.59;5080193;28;45430;-79
2023/01/05 09:55:18;;;;;;;;;6.33;6.33;;;;;14.84;100.00;102115.75;5071650;28;45338;-79
2023/01/05 09:58:12;;;;;;;;;6.00;6.00;;;;;14.86;100.00;102132.47;5061688;27;48259;-83
2023/01/05 10:00:58;;;;;;;;;4.67;4.67;;;;;14.88;100.00;102127.78;5089106;27;45353;-80
2023/01/05 10:03:24;;;;;;;;;3.00;3.00;;;;;14.82;100.00;102117.75;5061020;28;58637;-81
2023/01/05 10:05:51;;;;;;;;;3.67;3.67;;;;;14.78;100.00;102111.06;5081158;27;46878;-82
2023/01/05 10:08:37;;;;;;;;;4.67;4.67;;;;;14.87;100.00;102123.44;5060893;28;48070;-81
2023/01/05 10:14:17;;;;;;;;;9.00;6.00;;;;;15.00;100.00;102128.25;5073446;28;45457;-82
2023/01/05 10:16:44;;;;;;;;;6.67;6.33;;;;;15.04;100.00;102126.09;5059984;27;45396;-81
2023/01/05 10:19:22;;;;;;;;;5.33;5.33;;;;;14.96;100.00;102105.50;5051604;28;47488;-79
2023/01/05 10:21:48;;;;;;;;;6.00;6.00;;;;;15.09;100.00;102121.03;5067766;28;45347;-80
2023/01/05 10:24:30;;;;;;;;;10.00;10.00;;;;;15.11;100.00;102123.56;5080144;28;45343;-80
2023/01/05 10:27:18;;;;;;;;;5.33;5.33;;;;;15.12;100.00;102119.88;5080073;28;45309;-80
2023/01/05 10:29:46;;;;;;;;;7.00;7.00;;;;;15.18;100.00;102127.25;5054630;28;45257;-80
2023/01/05 10:32:23;;;;;;;;;3.33;3.33;;;;;15.23;100.00;102130.22;5065292;28;45406;-82
2023/01/05 10:34:51;;;;;;;;;4.33;4.33;;;;;15.19;100.00;102120.03;5047616;28;45398;-78
2023/01/05 10:37:35;;;;;;;;;4.33;4.33;;;;;15.23;100.00;102126.69;5060052;28;46453;-79
2023/01/05 10:40:12;;;;;;;;;4.00;4.00;;;;;15.12;100.00;102110.00;5038831;28;47539;-78
2023/01/05 10:43:08;;;;;;;;;3.00;3.00;;;;;15.25;100.00;102130.91;5070422;28;45476;-82
2023/01/05 10:45:36;;;;;;;;;2.00;2.00;;;;;15.15;100.00;102101.63;5071180;28;46535;-79
2023/01/05 10:48:02;;;;;;;;;4.33;2.00;;;;;15.25;100.00;102113.97;5060826;28;46051;-79
2023/01/05 10:50:36;;;;;;;;;3.00;2.00;;;;;15.25;100.00;102124.69;5070555;28;45400;-80
2023/01/05 10:53:24;;;;;;;;;2.00;2.00;;;;;15.12;100.00;102103.81;5055768;28;45717;-80
2023/01/05 10:55:56;;;;;;;;;3.00;3.00;;;;;15.11;100.00;102100.28;5059079;28;45461;-80
2023/01/05 10:58:48;;;;;;;;;2.00;2.00;;;;;15.06;100.00;102091.13;5040731;28;46445;-80
2023/01/05 11:01:13;;;;;;;;;2.33;2.33;;;;;15.18;100.00;102104.97;5034884;28;46251;-79
2023/01/05 11:03:43;;;;;;;;;3.00;3.00;;;;;15.22;100.00;102101.78;5031281;28;45483;-80
2023/01/05 11:06:29;;;;;;;;;4.33;4.00;;;;;15.18;100.00;102095.09;5037956;28;45420;-80
2023/01/05 11:09:14;;;;;;;;;3.00;3.00;;;;;15.18;100.00;102092.44;5058916;28;45435;-79
2023/01/05 11:11:40;;;;;;;;;3.67;3.67;;;;;15.15;100.00;102098.13;5058043;28;45340;-81
2023/01/05 11:14:15;;;;;;;;;2.00;2.00;;;;;15.09;100.00;102088.91;5057237;28;45450;-82
2023/01/05 11:16:48;;;;;;;;;5.33;3.00;;;;;15.11;100.00;102084.22;5040975;28;45432;-81
2023/01/05 11:19:16;;;;;;;;;2.00;2.00;;;;;15.17;100.00;102085.38;5040750;28;47284;-81
2023/01/05 11:21:44;;;;;;;;;2.00;2.00;;;;;15.20;100.00;102081.53;5040783;28;47141;-81
2023/01/05 11:24:34;;;;;;;;;3.00;3.00;;;;;15.29;100.00;102093.06;5058948;28;45360;-81
2023/01/05 11:27:02;;;;;;;;;3.33;3.00;;;;;15.30;100.00;102094.72;5041141;28;45469;-80
2023/01/05 11:29:29;;;;;;;;;2.00;2.00;;;;;15.29;100.00;102088.53;5058664;28;45555;-80
2023/01/05 11:32:00;;;;;;;;;2.67;2.67;;;;;15.29;100.00;102082.34;5060261;28;45434;-80
2023/01/05 11:34:40;;;;;;;;;5.00;3.67;;;;;15.37;100.00;102075.13;5079179;28;45340;-80
2023/01/05 11:37:08;;;;;;;;;2.67;2.67;;;;;15.38;100.00;102084.81;5078789;28;45329;-79
2023/01/05 11:39:40;;;;;;;;;3.00;3.00;;;;;15.17;100.00;102053.25;5079173;28;45280;-79
2023/01/05 11:42:30;;;;;;;;;2.00;2.00;;;;;15.26;100.00;102079.00;5078624;28;46648;-80
2023/01/05 11:44:59;;;;;;;;;2.00;2.00;;;;;15.12;100.00;102059.13;5068503;28;45684;-80
2023/01/05 11:47:39;;;;;;;;;2.00;2.00;;;;;15.20;100.00;102082.34;5060870;28;45351;-78
2023/01/05 11:50:34;;;;;;;;;4.00;4.00;;;;;15.25;100.00;102071.13;5060532;28;46254;-79
2023/01/05 11:53:03;;;;;;;;;3.00;3.00;;;;;15.26;100.00;102062.94;5047038;28;48313;-80
2023/01/05 11:55:32;;;;;;;;;2.00;2.00;;;;;15.34;100.00;102067.41;5078851;28;45275;-79
2023/01/05 11:58:25;;;;;;;;;3.00;3.00;;;;;15.40;100.00;102065.88;5060417;28;45446;-79
2023/01/05 12:00:56;;;;;;;;;4.00;3.00;;;;;15.43;100.00;102070.06;5078620;28;45273;-78